Time;durP1;ratioP1;P1;durP2;ratioP2;P2;SDS_P1;SDS_P2;PMS_P1;PMS_P2;Temp;Humidity;BMP_temperature;BMP_pressure;BME280_temperature;BME280_humidity;BME280_pressure;Samples;Min_cycle;Max_cycle;Signal;HPM_P1;HPM_P2
2023/01/16 00:00:23;;;;;;;71.00;31.87;;;;;;;1.48;100.00;94553.94;5027708;28;20574;-80
2023/01/16 00:02:50;;;;;;;66.60;32.83;;;;;;;1.50;100.00;94536.66;5026002;28;20199;-79
2023/01/16 00:05:17;;;;;;;73.10;34.20;;;;;;;1.58;100.00;94536.63;5025801;28;20244;-80
2023/01/16 00:07:45;;;;;;;68.20;33.13;;;;;;;1.52;100.00;94544.19;5028069;28;20187;-80
2023/01/16 00:10:12;;;;;;;72.90;33.30;;;;;;;1.48;100.00;94546.25;5025627;28;20194;-79
2023/01/16 00:12:39;;;;;;;72.17;34.67;;;;;;;1.53;100.00;94535.53;5029092;28;20206;-89
2023/01/16 00:15:08;;;;;;;72.43;34.27;;;;;;;1.62;100.00;94539.66;5030160;28;20202;-90
2023/01/16 00:17:34;;;;;;;68.57;32.73;;;;;;;1.60;100.00;94526.22;5028156;28;20587;-88
2023/01/16 00:20:01;;;;;;;69.70;32.43;;;;;;;1.68;100.00;94531.31;5026161;28;20213;-88
2023/01/16 00:22:28;;;;;;;61.00;30.03;;;;;;;1.72;100.00;94524.91;5028111;28;20233;-88
2023/01/16 00:24:55;;;;;;;62.40;28.57;;;;;;;1.74;100.00;94528.06;5028662;28;20208;-89
2023/01/16 00:27:22;;;;;;;60.90;28.67;;;;;;;1.75;100.00;94526.31;5028062;28;20191;-90
2023/01/16 00:29:49;;;;;;;59.67;29.43;;;;;;;1.69;100.00;94525.22;5028998;28;20197;-90
2023/01/16 00:32:17;;;;;;;58.93;29.20;;;;;;;1.66;100.00;94523.00;5027449;28;20260;-80
2023/01/16 00:34:44;;;;;;;65.23;26.20;;;;;;;1.56;100.00;94515.50;5026496;28;20199;-80
2023/01/16 00:37:11;;;;;;;55.53;25.23;;;;;;;1.46;100.00;94509.81;5028149;28;20218;-81
2023/01/16 00:39:39;;;;;;;57.67;26.97;;;;;;;1.56;100.00;94518.06;5029416;28;20272;-88
2023/01/16 00:42:06;;;;;;;60.60;27.77;;;;;;;1.56;100.00;94518.06;5022210;28;20252;-91
2023/01/16 00:44:33;;;;;;;56.50;26.07;;;;;;;1.53;100.00;94505.59;5029395;28;20203;-91
2023/01/16 00:47:00;;;;;;;57.23;25.30;;;;;;;1.55;100.00;94501.13;5027975;28;20263;-89
2023/01/16 00:49:28;;;;;;;61.17;27.13;;;;;;;1.66;100.00;94515.31;5028093;28;20213;-90
2023/01/16 00:51:55;;;;;;;57.17;25.23;;;;;;;1.65;100.00;94511.94;5029062;28;20213;-88
2023/01/16 00:54:22;;;;;;;58.40;25.43;;;;;;;1.61;100.00;94502.22;5031187;28;20661;-92
2023/01/16 00:56:49;;;;;;;51.40;25.33;;;;;;;1.73;100.00;94515.44;5030593;28;20682;-89
2023/01/16 00:59:16;;;;;;;56.80;25.23;;;;;;;1.66;100.00;94511.00;5029262;28;20213;-88
2023/01/16 01:01:42;;;;;;;56.67;24.97;;;;;;;1.58;100.00;94487.19;5029091;28;20201;-90
2023/01/16 01:04:09;;;;;;;54.80;24.10;;;;;;;1.66;100.00;94503.31;5030263;28;20194;-89
2023/01/16 01:06:38;;;;;;;63.53;25.17;;;;;;;1.73;100.00;94495.78;5032576;28;20206;-87
2023/01/16 01:09:04;;;;;;;54.20;25.53;;;;;;;1.78;100.00;94500.38;5032149;28;20206;-88
2023/01/16 01:11:31;;;;;;;50.73;24.27;;;;;;;1.74;100.00;94499.91;5033201;28;20213;-87
2023/01/16 01:13:58;;;;;;;55.13;24.97;;;;;;;1.76;100.00;94499.75;5032783;28;20198;-86
2023/01/16 01:16:25;;;;;;;58.00;26.57;;;;;;;1.67;100.00;94504.13;5032326;28;20218;-86
2023/01/16 01:18:52;;;;;;;60.37;28.27;;;;;;;1.71;100.00;94502.81;5031669;28;20218;-87
2023/01/16 01:21:19;;;;;;;69.73;30.37;;;;;;;1.40;100.00;94459.28;5032747;28;20213;-87
2023/01/16 01:23:47;;;;;;;57.37;26.30;;;;;;;1.61;100.00;94485.09;5031389;28;20198;-88
2023/01/16 01:26:16;;;;;;;54.13;25.87;;;;;;;1.48;100.00;94487.38;5031043;28;20692;-87
2023/01/16 01:28:44;;;;;;;55.67;25.80;;;;;;;1.32;100.00;94478.97;5031995;28;20202;-87
2023/01/16 01:31:14;;;;;;;53.70;26.23;;;;;;;1.31;100.00;94475.63;5030926;28;20193;-87
2023/01/16 01:33:42;;;;;;;48.83;23.93;;;;;;;1.37;100.00;94476.72;5030359;28;20572;-87
2023/01/16 01:36:10;;;;;;;51.87;25.23;;;;;;;1.35;100.00;94465.84;5029803;28;20599;-88
2023/01/16 01:38:38;;;;;;;48.30;23.37;;;;;;;1.28;100.00;94455.47;5030396;28;20202;-87
2023/01/16 01:41:06;;;;;;;46.90;24.20;;;;;;;1.33;100.00;94466.00;5017714;28;20206;-79
2023/01/16 01:43:42;;;;;;;50.77;25.83;;;;;;;1.38;100.00;94458.66;5023904;28;20546;-78
2023/01/16 01:46:19;;;;;;;44.70;24.23;;;;;;;1.40;100.00;94456.72;5027090;28;20192;-78
2023/01/16 01:48:48;;;;;;;46.63;24.13;;;;;;;1.35;100.00;94461.53;5027758;28;20246;-78
2023/01/16 01:51:19;;;;;;;51.30;25.00;;;;;;;1.40;100.00;94468.69;5027529;28;20201;-78
2023/01/16 01:53:50;;;;;;;48.77;23.50;;;;;;;1.32;100.00;94468.75;5029237;28;20666;-78
2023/01/16 01:56:23;;;;;;;51.07;23.97;;;;;;;1.33;100.00;94455.75;5027054;28;20219;-78
2023/01/16 01:58:55;;;;;;;47.47;24.13;;;;;;;1.43;100.00;94458.94;5025940;28;20209;-77
2023/01/16 02:01:23;;;;;;;52.77;25.40;;;;;;;1.53;100.00;94443.38;5028071;28;20285;-77
2023/01/16 02:03:55;;;;;;;51.97;24.93;;;;;;;1.61;100.00;94449.25;5027611;28;20638;-77
2023/01/16 02:06:29;;;;;;;50.13;24.53;;;;;;;1.63;100.00;94441.38;5026852;28;20660;-78
2023/01/16 02:08:56;;;;;;;50.87;25.27;;;;;;;1.58;100.00;94433.41;5029267;28;20198;-78
2023/01/16 02:11:32;;;;;;;50.23;23.60;;;;;;;1.71;100.00;94457.50;5028405;28;20198;-79
2023/01/16 02:14:01;;;;;;;49.57;25.63;;;;;;;1.72;100.00;94450.63;5027161;28;20269;-79
2023/01/16 02:19:23;;;;;;;57.27;29.20;;;;;;;1.73;100.00;94444.53;5027350;28;20278;-78
2023/01/16 02:22:21;;;;;;;64.60;30.13;;;;;;;1.65;100.00;94436.88;5025837;28;20197;-77
2023/01/16 02:25:07;;;;;;;63.37;31.27;;;;;;;1.64;100.00;94440.44;5025092;28;20233;-78
2023/01/16 02:27:57;;;;;;;64.10;30.70;;;;;;;1.79;100.00;94443.06;5028585;28;20197;-79
2023/01/16 02:30:47;;;;;;;54.20;27.57;;;;;;;1.83;100.00;94432.31;5027781;28;20194;-77
2023/01/16 02:33:23;;;;;;;54.17;28.73;;;;;;;1.78;100.00;94426.91;5025675;28;20191;-77
2023/01/16 02:36:00;;;;;;;54.40;28.77;;;;;;;1.85;100.00;94424.47;5025534;28;21448;-85
2023/01/16 02:38:39;;;;;;;59.07;29.93;;;;;;;1.87;100.00;94422.53;5030270;28;20190;-78
2023/01/16 02:41:16;;;;;;;58.57;29.20;;;;;;;1.84;100.00;94427.97;5027028;28;20643;-78
2023/01/16 02:43:50;;;;;;;59.77;29.23;;;;;;;1.78;100.00;94426.09;5029173;28;20191;-87
2023/01/16 02:46:27;;;;;;;59.47;29.90;;;;;;;1.70;100.00;94416.72;5029754;28;20191;-86
2023/01/16 02:49:08;;;;;;;67.83;32.90;;;;;;;1.73;100.00;94410.44;5029825;28;20205;-85
2023/01/16 02:51:41;;;;;;;61.33;31.23;;;;;;;1.77;100.00;94417.59;5028411;28;20773;-86
2023/01/16 02:54:14;;;;;;;61.37;30.70;;;;;;;1.66;100.00;94390.66;5025500;28;20208;-85
2023/01/16 02:56:45;;;;;;;59.73;29.80;;;;;;;1.63;100.00;94379.94;5027764;28;20638;-87
2023/01/16 02:59:15;;;;;;;56.30;29.60;;;;;;;1.78;100.00;94410.72;5025252;28;20186;-88
2023/01/16 03:01:45;;;;;;;60.33;30.20;;;;;;;1.70;100.00;94404.69;5025580;28;20202;-88
2023/01/16 03:04:40;;;;;;;60.13;30.57;;;;;;;1.69;100.00;94407.44;5028983;28;20194;-87
2023/01/16 03:07:22;;;;;;;58.13;26.90;;;;;;;1.69;100.00;94413.34;5023993;28;20187;-87
2023/01/16 03:09:57;;;;;;;55.17;26.13;;;;;;;1.67;100.00;94405.03;5028305;28;20287;-87
2023/01/16 03:12:34;;;;;;;56.20;26.43;;;;;;;1.60;100.00;94386.19;5029243;28;20217;-89
2023/01/16 03:15:10;;;;;;;61.77;30.70;;;;;;;1.73;100.00;94389.97;5030247;28;20198;-88
2023/01/16 03:17:46;;;;;;;76.83;28.23;;;;;;;1.73;100.00;94388.97;5029580;28;20221;-88
2023/01/16 03:20:28;;;;;;;69.13;30.60;;;;;;;1.71;100.00;94388.34;5027576;28;20603;-87
2023/01/16 03:23:07;;;;;;;84.77;27.87;;;;;;;1.71;100.00;94374.75;5032879;28;20653;-91
2023/01/16 03:25:40;;;;;;;135.57;25.73;;;;;;;1.66;100.00;94374.47;5030712;28;20621;-91
2023/01/16 03:28:17;;;;;;;95.77;26.43;;;;;;;1.56;100.00;94363.66;5030007;28;20183;-88
2023/01/16 03:30:54;;;;;;;74.93;24.13;;;;;;;1.51;100.00;94363.38;5028253;28;20195;-89
2023/01/16 03:33:31;;;;;;;94.37;25.63;;;;;;;1.39;100.00;94349.34;5030299;28;20189;-87
2023/01/16 03:36:04;;;;;;;65.30;26.90;;;;;;;1.53;100.00;94349.44;5028753;28;20217;-86
2023/01/16 03:38:34;;;;;;;94.00;30.63;;;;;;;1.55;100.00;94342.38;5028634;28;20198;-88
2023/01/16 03:41:04;;;;;;;85.27;25.97;;;;;;;1.61;100.00;94348.59;5030257;28;20210;-87
2023/01/16 03:43:35;;;;;;;63.30;25.03;;;;;;;1.61;100.00;94328.09;5032783;28;20211;-92
2023/01/16 03:46:07;;;;;;;60.97;24.97;;;;;;;1.61;100.00;94335.78;5031453;28;20210;-91
2023/01/16 03:48:42;;;;;;;88.07;24.13;;;;;;;1.68;100.00;94340.03;5031102;28;20190;-89
2023/01/16 03:51:13;;;;;;;66.13;24.33;;;;;;;1.74;100.00;94330.88;5030124;28;20194;-88
2023/01/16 03:53:46;;;;;;;66.03;25.33;;;;;;;1.67;100.00;94332.53;5026415;28;20638;-88
2023/01/16 03:56:18;;;;;;;73.87;26.87;;;;;;;1.74;100.00;94325.75;5027363;28;20665;-88
2023/01/16 03:58:48;;;;;;;120.93;25.27;;;;;;;1.75;100.00;94321.44;5029133;28;20650;-89
2023/01/16 04:01:26;;;;;;;101.07;27.00;;;;;;;1.62;100.00;94309.19;5028336;28;20680;-88
2023/01/16 04:04:02;;;;;;;84.03;31.63;;;;;;;1.80;100.00;94327.63;5029341;28;20193;-88
2023/01/16 04:06:36;;;;;;;103.63;36.83;;;;;;;1.84;100.00;94338.34;5029073;28;20723;-89
2023/01/16 04:09:08;;;;;;;96.60;35.40;;;;;;;1.86;100.00;94337.19;5028996;28;20194;-92
2023/01/16 04:11:38;;;;;;;105.17;35.20;;;;;;;1.86;100.00;94326.94;5029908;28;20692;-91
2023/01/16 04:14:08;;;;;;;88.70;34.73;;;;;;;1.86;100.00;94321.81;5031598;28;20203;-90
2023/01/16 04:16:36;;;;;;;86.30;31.33;;;;;;;1.87;100.00;94325.97;5029877;28;20704;-89
2023/01/16 04:19:06;;;;;;;82.10;33.20;;;;;;;1.85;100.00;94322.78;5033750;28;20226;-92
2023/01/16 04:21:33;;;;;;;87.27;31.20;;;;;;;1.86;100.00;94321.81;5031260;28;20210;-91
2023/01/16 04:24:01;;;;;;;89.10;30.87;;;;;;;1.78;100.00;94305.72;5030934;28;20867;-91
2023/01/16 04:26:28;;;;;;;86.70;30.17;;;;;;;1.87;100.00;94320.84;5023284;28;20198;-80
2023/01/16 04:28:55;;;;;;;91.87;34.07;;;;;;;1.84;100.00;94312.72;5026009;28;20198;-79
2023/01/16 04:31:23;;;;;;;78.10;28.00;;;;;;;1.82;100.00;94317.22;5026571;28;20202;-78
2023/01/16 04:33:50;;;;;;;78.60;28.20;;;;;;;1.66;100.00;94308.69;5025450;28;20288;-78
2023/01/16 04:36:18;;;;;;;62.83;27.77;;;;;;;1.75;100.00;94314.56;5025662;28;20293;-77
2023/01/16 04:38:45;;;;;;;102.03;28.60;;;;;;;1.81;100.00;94307.94;5025192;28;20213;-74
2023/01/16 04:41:12;;;;;;;64.80;26.00;;;;;;;1.77;100.00;94302.38;5023609;28;20202;-73
2023/01/16 04:43:39;;;;;;;77.77;30.30;;;;;;;1.79;100.00;94300.41;5025424;28;20217;-73
2023/01/16 04:46:06;;;;;;;78.00;29.30;;;;;;;1.79;100.00;94297.84;5025983;28;20217;-76
2023/01/16 04:48:33;;;;;;;76.37;29.93;;;;;;;1.79;100.00;94302.19;5024318;28;20264;-78
2023/01/16 04:51:00;;;;;;;92.93;29.07;;;;;;;1.74;100.00;94302.69;5025164;28;20695;-77
2023/01/16 04:53:28;;;;;;;83.77;31.33;;;;;;;1.70;100.00;94304.81;5025872;28;20198;-77
2023/01/16 04:55:55;;;;;;;82.30;30.33;;;;;;;1.76;100.00;94300.75;5023050;28;20197;-78
2023/01/16 04:58:21;;;;;;;66.07;27.57;;;;;;;1.79;100.00;94304.75;5025121;28;20685;-79
2023/01/16 05:00:49;;;;;;;66.83;25.40;;;;;;;1.79;100.00;94297.09;5026193;28;20199;-78
2023/01/16 05:03:15;;;;;;;64.73;23.97;;;;;;;1.75;100.00;94290.69;5024178;28;20608;-79
2023/01/16 05:05:43;;;;;;;61.97;26.97;;;;;;;1.79;100.00;94310.66;5024723;28;20218;-79
2023/01/16 05:08:19;;;;;;;80.33;29.97;;;;;;;1.75;100.00;94298.38;5026208;28;20199;-81
2023/01/16 05:10:47;;;;;;;84.30;31.80;;;;;;;1.77;100.00;94302.38;5021382;28;20198;-79
2023/01/16 05:13:14;;;;;;;129.57;33.87;;;;;;;1.76;100.00;94298.19;5021986;28;20205;-78
2023/01/16 05:15:44;;;;;;;103.20;33.80;;;;;;;1.81;100.00;94293.38;5026902;28;20195;-78
2023/01/16 05:18:12;;;;;;;124.93;34.17;;;;;;;1.82;100.00;94283.94;5026840;28;20313;-87
2023/01/16 05:20:39;;;;;;;99.90;33.77;;;;;;;1.69;100.00;94272.50;5025051;28;20287;-77
2023/01/16 05:23:07;;;;;;;111.20;36.80;;;;;;;1.58;100.00;94279.81;5025647;28;20563;-77
2023/01/16 05:25:34;;;;;;;129.43;37.03;;;;;;;1.41;100.00;94281.69;5018400;28;20202;-80
2023/01/16 05:28:02;;;;;;;105.67;34.40;;;;;;;1.45;100.00;94285.50;5016588;28;20203;-78
2023/01/16 05:30:30;;;;;;;112.33;32.90;;;;;;;1.30;100.00;94265.94;5011798;28;20297;-78
2023/01/16 05:32:57;;;;;;;91.30;33.27;;;;;;;1.32;100.00;94261.44;5012572;28;20234;-79
2023/01/16 05:35:24;;;;;;;80.87;31.57;;;;;;;1.27;100.00;94251.72;5024048;28;20902;-74
2023/01/16 05:37:50;;;;;;;89.93;30.87;;;;;;;1.41;100.00;94270.66;5025038;28;20237;-75
2023/01/16 05:40:18;;;;;;;76.80;30.20;;;;;;;1.38;100.00;94258.22;5022446;28;20199;-75
2023/01/16 05:42:46;;;;;;;86.07;31.73;;;;;;;1.39;100.00;94263.13;5022320;28;20716;-77
2023/01/16 05:45:15;;;;;;;86.33;31.53;;;;;;;1.35;100.00;94264.47;5023927;28;20198;-74
2023/01/16 05:47:41;;;;;;;83.60;31.47;;;;;;;1.32;100.00;94266.56;5022455;28;20196;-77
2023/01/16 05:50:09;;;;;;;79.60;31.67;;;;;;;1.33;100.00;94268.94;5026139;28;20985;-84
2023/01/16 05:52:36;;;;;;;90.57;34.07;;;;;;;1.37;100.00;94271.97;5031247;28;20235;-77
2023/01/16 05:55:04;;;;;;;99.03;40.77;;;;;;;1.45;100.00;94266.78;5026935;28;20213;-76
2023/01/16 05:57:30;;;;;;;115.43;42.40;;;;;;;1.52;100.00;94262.56;5026870;28;20299;-75
2023/01/16 05:59:57;;;;;;;111.20;42.67;;;;;;;1.46;100.00;94258.13;5028363;28;20190;-75
2023/01/16 06:02:25;;;;;;;100.80;41.90;;;;;;;1.50;100.00;94256.84;5026650;28;20205;-76
2023/01/16 06:04:52;;;;;;;94.73;39.73;;;;;;;1.53;100.00;94249.59;5025053;28;20617;-76
2023/01/16 06:07:19;;;;;;;106.03;39.17;;;;;;;1.51;100.00;94248.16;5027432;28;20187;-76
2023/01/16 06:09:46;;;;;;;87.63;37.20;;;;;;;1.49;100.00;94247.56;5026669;28;20202;-77
2023/01/16 06:12:15;;;;;;;84.63;34.73;;;;;;;1.51;100.00;94241.28;5025657;28;20937;-78
2023/01/16 06:14:42;;;;;;;75.93;33.90;;;;;;;1.55;100.00;94247.66;5026535;28;20203;-77
2023/01/16 06:17:09;;;;;;;87.60;33.77;;;;;;;1.61;100.00;94238.50;5025908;28;20233;-76
2023/01/16 06:19:38;;;;;;;74.80;33.17;;;;;;;1.66;100.00;94224.19;5026590;28;20209;-77
2023/01/16 06:22:04;;;;;;;76.17;32.17;;;;;;;1.69;100.00;94243.53;5028598;28;20193;-76
2023/01/16 06:24:31;;;;;;;69.00;31.97;;;;;;;1.69;100.00;94254.59;5026369;28;20195;-76
2023/01/16 06:26:58;;;;;;;68.13;30.63;;;;;;;1.75;100.00;94257.41;5026083;28;20187;-76
2023/01/16 06:29:25;;;;;;;64.50;30.47;;;;;;;1.67;100.00;94246.25;5028065;28;20679;-75
2023/01/16 06:31:52;;;;;;;72.10;31.97;;;;;;;1.64;100.00;94263.75;5026424;28;20191;-76
2023/01/16 06:34:18;;;;;;;63.60;27.53;;;;;;;1.77;100.00;94268.25;5026259;28;20194;-75
2023/01/16 06:36:48;;;;;;;72.33;29.10;;;;;;;1.57;100.00;94267.97;5027811;28;20201;-76
2023/01/16 06:39:15;;;;;;;68.03;29.63;;;;;;;1.57;100.00;94267.97;5025708;28;20723;-76
2023/01/16 06:41:43;;;;;;;75.77;31.70;;;;;;;1.45;100.00;94223.25;5026203;28;20198;-76
2023/01/16 06:44:10;;;;;;;82.13;33.63;;;;;;;1.75;100.00;94254.84;5028327;28;20202;-76
2023/01/16 06:46:37;;;;;;;82.37;32.87;;;;;;;1.75;100.00;94254.84;5025653;28;20219;-76
2023/01/16 06:49:03;;;;;;;77.57;32.23;;;;;;;1.84;100.00;94246.94;5025750;28;20688;-75
2023/01/16 06:51:30;;;;;;;76.93;31.70;;;;;;;1.96;100.00;94231.91;5027576;28;20210;-77
2023/01/16 06:53:59;;;;;;;71.60;31.07;;;;;;;2.05;100.00;94234.19;5024205;28;20208;-74
2023/01/16 06:56:26;;;;;;;72.50;28.87;;;;;;;2.11;100.00;94250.63;5024902;28;20209;-75
2023/01/16 06:58:53;;;;;;;66.43;27.20;;;;;;;2.17;100.00;94253.28;5027101;28;20219;-77
2023/01/16 07:01:20;;;;;;;59.83;25.30;;;;;;;2.19;100.00;94253.91;5024983;28;20866;-75
2023/01/16 07:03:47;;;;;;;47.33;21.73;;;;;;;2.31;100.00;94251.69;5025044;28;20198;-75
2023/01/16 07:06:14;;;;;;;50.37;23.10;;;;;;;2.31;100.00;94249.13;5027314;28;20230;-75
2023/01/16 07:08:41;;;;;;;49.77;23.30;;;;;;;2.36;100.00;94240.94;5024433;28;20207;-75
2023/01/16 07:11:09;;;;;;;47.10;22.47;;;;;;;2.48;100.00;94245.41;5025241;28;20198;-76
2023/01/16 07:13:36;;;;;;;48.57;22.03;;;;;;;2.53;100.00;94242.31;5026904;28;20199;-76
2023/01/16 07:24:22;;;;;;;45.07;21.57;;;;;;;2.44;100.00;94228.00;5026442;28;20217;-75
2023/01/16 07:26:57;;;;;;;53.57;24.43;;;;;;;2.57;100.00;94236.63;5024850;28;20226;-76
2023/01/16 07:29:24;;;;;;;63.37;25.17;;;;;;;2.62;100.00;94233.56;5023894;28;20615;-75
2023/01/16 07:31:51;;;;;;;56.60;26.53;;;;;;;2.56;100.00;94227.38;5026674;28;20191;-76
2023/01/16 07:34:17;;;;;;;52.67;25.37;;;;;;;2.67;100.00;94237.16;5024998;28;20550;-76
2023/01/16 07:36:44;;;;;;;54.77;24.53;;;;;;;2.64;100.00;94222.13;5025038;28;20800;-76
2023/01/16 07:39:11;;;;;;;56.80;25.57;;;;;;;2.79;100.00;94216.97;5027141;28;20206;-74
2023/01/16 07:41:38;;;;;;;54.77;25.33;;;;;;;2.79;100.00;94222.91;5025383;28;20187;-75
2023/01/16 07:44:07;;;;;;;58.23;26.47;;;;;;;2.68;100.00;94202.84;5026430;28;20202;-79
2023/01/16 07:46:33;;;;;;;55.40;27.47;;;;;;;2.87;100.00;94227.13;5027474;28;20195;-77
2023/01/16 07:49:01;;;;;;;54.17;26.60;;;;;;;2.87;100.00;94222.00;5025003;28;20274;-77
2023/01/16 07:51:28;;;;;;;54.37;26.13;;;;;;;2.96;100.00;94214.97;5024498;28;20202;-76
2023/01/16 07:53:55;;;;;;;63.30;28.17;;;;;;;3.01;100.00;94202.38;5026585;28;20194;-76
2023/01/16 07:56:22;;;;;;;68.37;28.63;;;;;;;2.98;100.00;94193.28;5024918;28;20229;-76
2023/01/16 07:58:51;;;;;;;68.57;28.40;;;;;;;2.95;100.00;94197.97;5024265;28;20218;-76
2023/01/16 08:01:19;;;;;;;61.53;30.07;;;;;;;2.97;100.00;94178.09;5026766;28;20191;-77
2023/01/16 08:03:46;;;;;;;67.03;30.43;;;;;;;3.00;100.00;94181.03;5024485;28;20273;-75
2023/01/16 08:06:13;;;;;;;59.77;27.27;;;;;;;3.03;100.00;94185.81;5023816;28;20219;-75
2023/01/16 08:08:39;;;;;;;58.67;28.83;;;;;;;3.10;100.00;94186.69;5026975;28;20191;-75
2023/01/16 08:13:47;;;;;;;65.83;28.10;;;;;;;3.23;100.00;94209.13;5023481;28;20202;-75
2023/01/16 08:16:14;;;;;;;63.30;28.70;;;;;;;3.21;100.00;94193.09;5023104;28;20209;-79
2023/01/16 08:18:42;;;;;;;72.53;29.57;;;;;;;3.10;100.00;94209.78;5024158;28;20219;-78
2023/01/16 08:21:08;;;;;;;71.57;31.40;;;;;;;3.02;100.00;94219.38;5022834;28;20199;-74
2023/01/16 08:23:35;;;;;;;77.87;35.10;;;;;;;3.04;100.00;94210.50;5024517;28;20203;-78
2023/01/16 08:26:02;;;;;;;79.57;36.53;;;;;;;2.99;100.00;94210.28;5024654;28;20199;-79
2023/01/16 08:28:29;;;;;;;81.73;38.30;;;;;;;2.91;100.00;94209.59;5023358;28;20219;-81
2023/01/16 08:30:56;;;;;;;81.83;36.53;;;;;;;3.01;100.00;94200.63;5023973;28;20191;-78
2023/01/16 08:33:22;;;;;;;84.60;37.20;;;;;;;3.16;100.00;94190.28;5023864;28;20202;-77
2023/01/16 08:35:51;;;;;;;80.53;35.57;;;;;;;3.33;100.00;94189.84;5023688;28;20199;-77
2023/01/16 08:38:17;;;;;;;79.73;35.47;;;;;;;3.51;100.00;94191.97;5024354;28;20219;-76
2023/01/16 08:40:45;;;;;;;79.07;35.47;;;;;;;3.63;100.00;94179.41;5025395;28;20635;-77
2023/01/16 08:51:27;;;;;;;76.00;33.80;;;;;;;4.09;100.00;94172.78;5024438;28;20199;-75
2023/01/16 08:53:56;;;;;;;77.97;34.17;;;;;;;4.00;100.00;94171.34;5024791;28;20200;-77
2023/01/16 08:56:24;;;;;;;77.00;34.30;;;;;;;4.07;100.00;94181.66;5026253;28;20272;-82
2023/01/16 08:58:51;;;;;;;86.10;36.67;;;;;;;4.12;100.00;94187.03;5026070;28;20227;-80
2023/01/16 09:01:19;;;;;;;85.83;36.30;;;;;;;4.17;100.00;94182.91;5025826;28;20206;-81
2023/01/16 09:03:46;;;;;;;78.53;35.33;;;;;;;4.10;100.00;94168.44;5030436;28;20258;-81
2023/01/16 09:06:13;;;;;;;84.27;37.17;;;;;;;4.21;100.00;94158.41;5030166;28;20265;-82
2023/01/16 09:08:41;;;;;;;83.60;36.90;;;;;;;4.27;100.00;94160.19;5031232;28;20187;-82
2023/01/16 09:13:56;;;;;;;81.80;36.93;;;;;;;4.34;100.00;94150.72;5029410;28;20178;-77
2023/01/16 09:16:24;;;;;;;83.50;36.87;;;;;;;4.52;100.00;94155.34;5030134;28;20659;-75
2023/01/16 09:18:52;;;;;;;86.30;35.67;;;;;;;4.60;100.00;94150.03;5028907;28;20211;-75
2023/01/16 09:21:19;;;;;;;73.03;35.47;;;;;;;4.67;100.00;94137.19;5029276;28;20195;-74
2023/01/16 09:23:47;;;;;;;71.20;35.73;;;;;;;4.70;100.00;94139.38;5029846;28;20235;-75
2023/01/16 09:26:14;;;;;;;86.13;36.70;;;;;;;4.78;100.00;94131.47;5029659;28;20200;-77
2023/01/16 09:28:42;;;;;;;75.40;36.07;;;;;;;4.91;100.00;94126.31;5033714;28;20189;-77
2023/01/16 09:31:09;;;;;;;83.70;35.93;;;;;;;5.00;100.00;94123.38;5034224;28;20194;-76
2023/01/16 09:33:36;;;;;;;69.60;32.60;;;;;;;5.00;100.00;94122.56;5031104;28;20204;-78
2023/01/16 09:36:04;;;;;;;74.30;33.67;;;;;;;4.97;100.00;94116.03;5034188;28;20197;-77
2023/01/16 09:38:30;;;;;;;69.30;32.70;;;;;;;5.04;100.00;94121.19;5034179;28;20211;-75
2023/01/16 09:41:00;;;;;;;67.93;30.57;;;;;;;5.14;100.00;94119.81;5033186;28;20193;-76
2023/01/16 09:43:38;;;;;;;61.97;30.60;;;;;;;5.23;100.00;94115.25;5033387;28;20201;-76
2023/01/16 09:46:12;;;;;;;66.07;30.87;;;;;;;5.34;100.00;94111.31;5032483;28;20197;-76
2023/01/16 09:48:46;;;;;;;67.53;32.73;;;;;;;5.47;100.00;94106.13;5031912;28;20801;-76
2023/01/16 09:51:17;;;;;;;69.77;30.13;;;;;;;5.56;100.00;94099.78;5033678;28;20192;-76
2023/01/16 09:59:30;;;;;;;58.97;29.83;;;;;;;5.76;100.00;94102.31;5037104;28;20224;-77
2023/01/16 10:02:05;;;;;;;63.43;29.83;;;;;;;5.76;100.00;94087.66;5032517;28;20190;-77
2023/01/16 10:04:32;;;;;;;62.07;27.57;;;;;;;5.85;100.00;94090.78;5033411;28;20236;-76
2023/01/16 10:07:25;;;;;;;59.50;27.83;;;;;;;5.90;100.00;94085.84;5034078;28;20249;-77
2023/01/16 10:10:02;;;;;;;57.00;27.37;;;;;;;5.76;99.22;94079.13;5029795;28;20194;-76
2023/01/16 10:12:33;;;;;;;52.47;26.60;;;;;;;5.60;100.00;94055.34;5033133;28;20194;-77
2023/01/16 10:15:13;;;;;;;56.47;26.47;;;;;;;5.66;100.00;94049.41;5031364;28;20193;-77
2023/01/16 10:17:51;;;;;;;55.27;27.47;;;;;;;5.78;100.00;94056.50;5030803;28;20202;-77
2023/01/16 10:20:53;;;;;;;61.80;27.43;;;;;;;5.76;100.00;94038.66;5030358;28;20221;-77
2023/01/16 10:23:40;;;;;;;54.03;25.47;;;;;;;5.78;99.68;94033.28;5030709;28;20200;-78
2023/01/16 10:26:09;;;;;;;55.30;26.77;;;;;;;5.88;100.00;94031.13;5029010;28;20339;-77
2023/01/16 10:28:53;;;;;;;62.40;28.37;;;;;;;5.91;100.00;94036.66;5032797;28;20207;-77
2023/01/16 10:31:26;;;;;;;54.67;26.40;;;;;;;6.03;99.60;94026.50;5030079;28;20202;-76
2023/01/16 10:33:58;;;;;;;50.60;25.70;;;;;;;6.13;99.55;94029.41;5032654;28;20197;-77
2023/01/16 10:36:30;;;;;;;54.47;25.87;;;;;;;6.18;99.08;94012.31;5032562;28;20190;-76
2023/01/16 10:38:58;;;;;;;53.03;26.83;;;;;;;6.19;99.01;94020.84;5029838;28;20230;-77
2023/01/16 10:50:03;;;;;;;52.73;24.47;;;;;;;6.89;97.77;93993.19;5030382;28;20249;-75
2023/01/16 10:52:30;;;;;;;45.17;23.03;;;;;;;7.62;96.33;93988.91;5031784;28;20282;-76
2023/01/16 10:54:59;;;;;;;40.97;21.73;;;;;;;8.47;92.55;93974.91;5029917;28;20195;-75
2023/01/16 10:57:27;;;;;;;37.83;20.83;;;;;;;9.41;87.28;93968.75;5032123;28;20191;-75
2023/01/16 10:59:59;;;;;;;42.00;21.00;;;;;;;10.16;83.80;93965.09;5031851;28;20214;-75
2023/01/16 11:02:30;;;;;;;43.53;21.50;;;;;;;10.93;82.73;93967.19;5032064;28;20187;-73
2023/01/16 11:04:57;;;;;;;41.83;21.67;;;;;;;11.39;78.41;93957.22;5028999;28;20223;-73
2023/01/16 11:07:28;;;;;;;37.30;21.77;;;;;;;11.49;77.03;93964.34;5031196;28;20657;-75
2023/01/16 11:09:55;;;;;;;42.93;24.70;;;;;;;11.51;76.83;93945.91;5031900;28;20186;-74
2023/01/16 11:18:30;;;;;;;35.03;19.77;;;;;;;12.53;72.63;93958.03;5030564;28;20202;-76
2023/01/16 11:21:00;;;;;;;36.23;19.47;;;;;;;12.74;71.32;93958.19;5028622;28;20186;-75
2023/01/16 11:23:34;;;;;;;33.37;18.73;;;;;;;12.20;72.05;93962.63;5028488;28;20710;-75
2023/01/16 11:26:01;;;;;;;28.27;17.53;;;;;;;12.41;71.58;93972.22;5031594;28;20210;-76
2023/01/16 11:28:30;;;;;;;32.27;18.17;;;;;;;12.97;70.92;93966.50;5030788;28;20190;-78
2023/01/16 11:31:01;;;;;;;31.00;17.50;;;;;;;13.36;69.69;93953.97;5028300;28;20190;-76
2023/01/16 11:33:35;;;;;;;30.10;17.97;;;;;;;13.65;68.93;93957.81;5031334;28;20561;-76
2023/01/16 11:36:04;;;;;;;31.93;17.90;;;;;;;13.97;67.64;93946.44;5029264;28;20613;-75
2023/01/16 11:38:37;;;;;;;30.87;18.73;;;;;;;14.68;64.93;93950.84;5031240;28;20187;-75
2023/01/16 11:41:08;;;;;;;32.40;18.60;;;;;;;14.98;64.47;93944.84;5026681;28;20210;-75
2023/01/16 11:46:39;;;;;;;38.13;20.03;;;;;;;14.82;63.85;93922.34;5028396;28;20273;-76
2023/01/16 11:49:17;;;;;;;33.77;19.67;;;;;;;14.95;63.85;93937.50;5028712;28;20226;-75
2023/01/16 11:51:44;;;;;;;35.33;18.90;;;;;;;14.80;63.49;93919.22;5028354;28;20175;-75
2023/01/16 11:54:15;;;;;;;32.43;19.10;;;;;;;14.63;63.37;93916.06;5031062;28;20219;-75
2023/01/16 11:56:59;;;;;;;30.47;18.17;;;;;;;14.39;64.03;93912.38;5028565;28;20179;-77
2023/01/16 11:59:54;;;;;;;32.70;19.07;;;;;;;14.42;63.97;93899.56;5029219;28;20218;-75
2023/01/16 12:02:41;;;;;;;32.93;18.77;;;;;;;13.96;64.51;93890.81;5028857;28;20661;-74
2023/01/16 12:08:19;;;;;;;29.97;17.50;;;;;;;13.25;66.04;93878.50;5028606;28;20333;-77
2023/01/16 12:10:53;;;;;;;31.30;17.03;;;;;;;12.98;67.61;93891.63;5029105;28;20579;-77
2023/01/16 12:16:21;;;;;;;35.13;19.63;;;;;;;12.29;69.71;93868.19;5029780;28;20280;-77
2023/01/16 12:19:05;;;;;;;34.83;19.43;;;;;;;11.88;71.28;93861.78;5029390;28;20207;-77
2023/01/16 12:21:39;;;;;;;30.13;18.27;;;;;;;11.46;71.94;93863.34;5030154;28;20194;-75
2023/01/16 12:24:28;;;;;;;33.10;18.47;;;;;;;11.07;73.46;93864.44;5029059;28;20546;-76